createdAt,value
2019-01-10T00:00:09.126Z,2.60
2019-01-10T00:02:50.408Z,2.60
2019-01-10T00:05:31.009Z,2.60
2019-01-10T00:08:14.991Z,2.60
2019-01-10T00:10:56.028Z,2.60
2019-01-10T00:13:37.130Z,2.60
2019-01-10T00:19:01.035Z,2.70
2019-01-10T00:24:24.016Z,2.70
2019-01-10T00:30:17.919Z,2.70
2019-01-10T00:35:40.582Z,2.70
2019-01-10T00:38:21.504Z,2.60
2019-01-10T00:41:00.886Z,2.50
2019-01-10T00:43:49.152Z,2.40
2019-01-10T00:46:29.712Z,2.40
2019-01-10T00:49:10.914Z,2.30
2019-01-10T00:51:51.702Z,2.30
2019-01-10T00:57:14.325Z,2.30
2019-01-10T00:59:55.463Z,2.20
2019-01-10T01:02:35.981Z,2.20
2019-01-10T01:05:17.344Z,2.20
2019-01-10T01:07:58.081Z,2.10
2019-01-10T01:10:38.747Z,2.10
2019-01-10T01:13:19.973Z,2.00
2019-01-10T01:16:00.962Z,2.00
2019-01-10T01:18:42.402Z,2.00
2019-01-10T01:21:22.880Z,2.00
2019-01-10T01:24:04.258Z,1.90
2019-01-10T01:29:27.798Z,1.80
2019-01-10T01:32:08.201Z,1.70
2019-01-10T01:34:49.408Z,1.70
2019-01-10T01:37:35.532Z,1.70
2019-01-10T01:40:15.312Z,1.80
2019-01-10T01:42:55.826Z,1.70
2019-01-10T01:45:36.905Z,1.70
2019-01-10T01:48:18.254Z,1.70
2019-01-10T01:50:59.600Z,1.80
2019-01-10T01:53:39.045Z,1.80
2019-01-10T01:56:19.548Z,1.80
2019-01-10T01:58:59.966Z,1.80
2019-01-10T02:01:41.796Z,1.80
2019-01-10T02:04:23.013Z,1.80
2019-01-10T02:07:03.889Z,1.80
2019-01-10T02:09:44.726Z,1.80
2019-01-10T02:12:25.987Z,1.80
2019-01-10T02:15:06.668Z,1.80
2019-01-10T02:17:49.121Z,1.80
2019-01-10T02:20:30.739Z,1.80
2019-01-10T02:23:11.536Z,1.80
2019-01-10T02:25:52.117Z,1.80
2019-01-10T02:28:31.568Z,1.80
2019-01-10T02:31:19.810Z,1.80
2019-01-10T02:34:00.350Z,1.90
2019-01-10T02:36:41.588Z,1.90
2019-01-10T02:39:23.457Z,2.00
2019-01-10T02:42:04.671Z,2.00
2019-01-10T02:44:45.223Z,2.00
2019-01-10T02:47:26.632Z,2.10
2019-01-10T02:50:07.349Z,2.10
2019-01-10T02:52:48.035Z,2.00
2019-01-10T02:55:28.902Z,2.10
2019-01-10T02:58:09.719Z,2.10
2019-01-10T03:00:50.538Z,2.10
2019-01-10T03:03:31.467Z,2.10
2019-01-10T03:06:11.918Z,2.10
2019-01-10T03:08:52.719Z,2.10
2019-01-10T03:11:22.166Z,2.00
2019-01-10T03:13:51.568Z,2.00
2019-01-10T03:16:39.852Z,2.00
2019-01-10T03:19:09.451Z,2.00
2019-01-10T03:21:57.712Z,1.90
2019-01-10T03:24:38.801Z,1.90
2019-01-10T03:27:19.656Z,1.90
2019-01-10T03:30:00.975Z,1.90
2019-01-10T03:32:41.896Z,1.90
2019-01-10T03:35:22.289Z,1.90
2019-01-10T03:38:03.051Z,1.90
2019-01-10T03:40:43.809Z,1.80
2019-01-10T03:46:23.868Z,1.80
2019-01-10T03:49:04.526Z,1.80
2019-01-10T03:51:45.503Z,1.80
2019-01-10T03:54:25.882Z,1.80
2019-01-10T03:57:06.494Z,1.80
2019-01-10T03:59:47.439Z,1.80
2019-01-10T04:02:28.503Z,1.80
2019-01-10T04:05:09.986Z,1.80
2019-01-10T04:07:51.184Z,1.70
2019-01-10T04:10:32.065Z,1.70
2019-01-10T04:13:12.628Z,1.70
2019-01-10T04:15:53.827Z,1.70
2019-01-10T04:18:34.411Z,1.60
2019-01-10T04:21:17.531Z,1.60
2019-01-10T04:23:57.656Z,1.60
2019-01-10T04:26:38.992Z,1.50
2019-01-10T04:29:19.672Z,1.50
2019-01-10T04:32:00.578Z,1.40
2019-01-10T04:34:41.636Z,1.40
2019-01-10T04:37:22.362Z,1.50
2019-01-10T04:40:02.870Z,1.50
2019-01-10T04:45:56.552Z,1.60
2019-01-10T04:48:37.866Z,1.60
2019-01-10T04:51:18.912Z,1.60
2019-01-10T04:53:59.340Z,1.70
2019-01-10T04:56:40.087Z,1.60
2019-01-10T04:59:20.860Z,1.60
2019-01-10T05:02:01.511Z,1.50
2019-01-10T05:04:42.254Z,1.40
2019-01-10T05:07:23.256Z,1.40
2019-01-10T05:10:03.764Z,1.30
2019-01-10T05:12:45.084Z,1.30
2019-01-10T05:15:26.035Z,1.30
2019-01-10T05:18:08.234Z,1.20
2019-01-10T05:20:48.924Z,1.20
2019-01-10T05:23:29.684Z,1.20
2019-01-10T05:26:10.346Z,1.20
2019-01-10T05:28:50.886Z,1.20
2019-01-10T05:31:31.854Z,1.20
2019-01-10T05:34:12.982Z,1.10
2019-01-10T05:36:53.711Z,1.10
2019-01-10T05:39:47.425Z,1.00
2019-01-10T05:45:02.846Z,1.00
2019-01-10T05:47:44.573Z,1.00
2019-01-10T05:50:25.327Z,1.00
2019-01-10T05:53:06.047Z,1.00
2019-01-10T05:55:47.453Z,1.00
2019-01-10T06:01:40.987Z,1.00
2019-01-10T06:04:22.274Z,1.00
2019-01-10T06:07:02.940Z,1.10
2019-01-10T06:09:44.322Z,1.10
2019-01-10T06:12:25.876Z,1.20
2019-01-10T06:15:06.596Z,1.20
2019-01-10T06:17:47.642Z,1.20
2019-01-10T06:20:29.526Z,1.20
2019-01-10T06:23:10.392Z,1.30
2019-01-10T06:25:50.797Z,1.30
2019-01-10T06:28:32.207Z,1.40
2019-01-10T06:31:13.748Z,1.40
2019-01-10T06:33:54.671Z,1.40
2019-01-10T06:36:35.766Z,1.40
2019-01-10T06:39:19.492Z,1.40
2019-01-10T06:41:59.511Z,1.40
2019-01-10T06:44:44.558Z,1.40
2019-01-10T06:47:29.116Z,1.40
2019-01-10T06:50:09.803Z,1.40
2019-01-10T06:52:50.793Z,1.40
2019-01-10T06:55:30.450Z,1.40
2019-01-10T06:58:19.258Z,1.40
2019-01-10T07:01:00.264Z,1.40
2019-01-10T07:03:41.396Z,1.40
2019-01-10T07:06:23.072Z,1.40
2019-01-10T07:09:05.020Z,1.40
2019-01-10T07:11:46.270Z,1.50
2019-01-10T07:14:27.000Z,1.50
2019-01-10T07:17:07.779Z,1.50
2019-01-10T07:19:49.404Z,1.50
2019-01-10T07:25:13.279Z,1.60
2019-01-10T07:27:56.611Z,1.60
2019-01-10T07:30:37.754Z,1.70
2019-01-10T07:36:00.720Z,1.70
2019-01-10T07:38:42.674Z,1.70
2019-01-10T07:41:24.070Z,1.80
2019-01-10T07:44:05.900Z,1.80
2019-01-10T07:46:46.855Z,1.80
2019-01-10T07:49:27.996Z,1.90
2019-01-10T07:52:08.856Z,1.80
2019-01-10T07:57:29.946Z,1.80
2019-01-10T08:00:18.340Z,1.80
2019-01-10T08:03:00.821Z,1.90
2019-01-10T08:05:30.557Z,1.90
2019-01-10T08:08:01.162Z,1.90
2019-01-10T08:10:50.072Z,1.90
2019-01-10T08:13:38.414Z,1.90
2019-01-10T08:16:19.854Z,1.90
2019-01-10T08:19:01.113Z,1.90
2019-01-10T08:21:42.019Z,1.90
2019-01-10T08:24:24.556Z,1.90
2019-01-10T08:27:05.359Z,1.90
2019-01-10T08:29:46.856Z,1.90
2019-01-10T08:32:27.832Z,2.00
2019-01-10T08:35:09.267Z,2.00
2019-01-10T08:37:50.881Z,2.00
2019-01-10T08:40:32.225Z,2.00
2019-01-10T08:43:14.597Z,2.00
2019-01-10T08:45:43.995Z,2.00
2019-01-10T08:48:32.634Z,2.00
2019-01-10T08:51:21.053Z,2.00
2019-01-10T08:53:54.082Z,2.10
2019-01-10T08:56:22.941Z,2.10
2019-01-10T08:59:11.366Z,2.10
2019-01-10T09:01:52.332Z,2.10
2019-01-10T09:04:31.796Z,2.20
2019-01-10T09:07:20.305Z,2.20
2019-01-10T09:10:02.093Z,2.20
2019-01-10T09:12:31.694Z,2.20
2019-01-10T09:15:25.249Z,2.20
2019-01-10T09:18:10.064Z,2.30
2019-01-10T09:20:51.370Z,2.30
2019-01-10T09:26:14.611Z,2.30
2019-01-10T09:28:55.837Z,2.40
2019-01-10T09:31:37.230Z,2.40
2019-01-10T09:34:24.513Z,2.40
2019-01-10T09:37:01.420Z,2.50
2019-01-10T09:39:42.158Z,2.50
2019-01-10T09:42:23.446Z,2.50
2019-01-10T09:45:04.445Z,2.50
2019-01-10T09:47:45.906Z,2.60
2019-01-10T09:50:27.064Z,2.60
2019-01-10T09:53:08.852Z,2.70
2019-01-10T09:55:49.751Z,2.70
2019-01-10T09:58:30.498Z,2.70
2019-01-10T10:01:11.322Z,2.80
2019-01-10T10:03:53.175Z,2.80
2019-01-10T10:06:34.088Z,2.80
2019-01-10T10:09:15.471Z,2.90
2019-01-10T10:11:56.494Z,2.90
2019-01-10T10:14:37.967Z,3.00
2019-01-10T10:17:19.094Z,3.00
2019-01-10T10:22:41.608Z,3.10
2019-01-10T10:25:22.536Z,3.20
2019-01-10T10:28:03.092Z,3.20
2019-01-10T10:30:44.344Z,3.30
2019-01-10T10:33:24.940Z,3.30
2019-01-10T10:36:05.584Z,3.40
2019-01-10T10:38:46.368Z,3.40
2019-01-10T10:41:26.914Z,3.40
2019-01-10T10:44:07.572Z,3.30
2019-01-10T10:46:49.012Z,3.40
2019-01-10T10:52:31.699Z,3.40
2019-01-10T10:55:11.285Z,3.40
2019-01-10T10:57:52.711Z,3.40
2019-01-10T11:03:34.564Z,3.50
2019-01-10T11:06:15.304Z,3.50
2019-01-10T11:08:56.366Z,3.50
2019-01-10T11:11:36.108Z,3.60
2019-01-10T11:14:16.726Z,3.60
2019-01-10T11:16:57.372Z,3.70
2019-01-10T11:19:38.210Z,3.70
2019-01-10T11:22:18.708Z,3.70
2019-01-10T11:24:59.380Z,3.80
2019-01-10T11:27:40.040Z,3.80
2019-01-10T11:30:20.846Z,3.90
2019-01-10T11:33:01.694Z,3.90
2019-01-10T11:35:42.444Z,4.00
2019-01-10T11:38:23.290Z,4.00
2019-01-10T11:41:04.062Z,4.10
2019-01-10T11:43:45.472Z,4.10
2019-01-10T11:46:26.890Z,4.10
2019-01-10T11:49:07.702Z,4.10
2019-01-10T11:51:48.515Z,4.20
2019-01-10T11:54:29.036Z,4.20
2019-01-10T11:57:09.778Z,4.30
2019-01-10T11:59:51.194Z,4.30
2019-01-10T12:02:36.392Z,4.40
2019-01-10T12:07:57.003Z,4.40
2019-01-10T12:10:37.820Z,4.50
2019-01-10T12:13:18.345Z,4.50
2019-01-10T12:15:59.092Z,4.50
2019-01-10T12:18:39.738Z,4.50
2019-01-10T12:21:21.194Z,4.50
2019-01-10T12:24:01.902Z,4.60
2019-01-10T12:26:43.076Z,4.60
2019-01-10T12:29:23.986Z,4.60
2019-01-10T12:32:04.742Z,4.60
2019-01-10T12:34:45.348Z,4.70
2019-01-10T12:37:26.546Z,4.70
2019-01-10T12:40:07.250Z,4.80
2019-01-10T12:42:48.854Z,4.80
2019-01-10T12:45:30.091Z,4.70
2019-01-10T12:48:11.297Z,4.80
2019-01-10T12:50:40.902Z,4.80
2019-01-10T12:56:18.563Z,4.80
2019-01-10T12:58:48.046Z,4.90
2019-01-10T13:01:17.374Z,4.90
2019-01-10T13:03:46.964Z,4.90
2019-01-10T13:06:35.256Z,4.90
2019-01-10T13:09:23.587Z,5.00
2019-01-10T13:12:04.132Z,5.00
2019-01-10T13:14:44.894Z,5.00
2019-01-10T13:17:25.670Z,5.00
2019-01-10T13:20:06.482Z,5.10
2019-01-10T13:22:46.973Z,5.10
2019-01-10T13:25:27.905Z,5.10
2019-01-10T13:28:08.511Z,5.20
2019-01-10T13:30:47.880Z,5.20
2019-01-10T13:33:28.544Z,5.10
2019-01-10T13:36:09.536Z,5.10
2019-01-10T13:38:50.651Z,5.10
2019-01-10T13:41:32.124Z,5.10
2019-01-10T13:44:13.025Z,5.10
2019-01-10T13:46:55.703Z,5.10
2019-01-10T13:49:36.970Z,5.20
2019-01-10T13:52:18.264Z,5.10
2019-01-10T13:54:58.957Z,5.20
2019-01-10T13:57:39.615Z,5.10
2019-01-10T14:00:20.348Z,5.10
2019-01-10T14:03:01.291Z,5.10
2019-01-10T14:05:41.936Z,5.10
2019-01-10T14:08:23.434Z,5.10
2019-01-10T14:11:04.128Z,5.10
2019-01-10T14:13:45.564Z,5.10
2019-01-10T14:16:27.138Z,5.10
2019-01-10T14:19:07.760Z,5.10
2019-01-10T14:25:01.503Z,5.10
2019-01-10T14:27:42.092Z,5.10
2019-01-10T14:30:23.604Z,5.10
2019-01-10T14:33:04.287Z,5.10
2019-01-10T14:35:45.451Z,5.10
2019-01-10T14:38:26.858Z,5.10
2019-01-10T14:41:08.346Z,5.10
2019-01-10T14:43:49.606Z,5.00
2019-01-10T14:46:30.136Z,5.00
2019-01-10T14:49:11.680Z,5.00
2019-01-10T14:51:53.266Z,5.00
2019-01-10T14:54:34.641Z,5.00
2019-01-10T14:57:16.114Z,5.00
2019-01-10T14:59:55.651Z,5.00
2019-01-10T15:02:36.470Z,4.90
2019-01-10T15:05:18.038Z,4.90
2019-01-10T15:07:59.585Z,4.90
2019-01-10T15:10:40.480Z,4.90
2019-01-10T15:13:21.305Z,4.90
2019-01-10T15:16:02.664Z,4.80
2019-01-10T15:18:43.934Z,4.90
2019-01-10T15:21:24.736Z,4.80
2019-01-10T15:24:04.403Z,4.90
2019-01-10T15:26:45.118Z,4.80
2019-01-10T15:29:25.761Z,4.80
2019-01-10T15:32:06.819Z,4.80
2019-01-10T15:34:47.846Z,4.80
2019-01-10T15:37:29.044Z,4.80
2019-01-10T15:42:52.550Z,4.70
2019-01-10T15:45:34.036Z,4.70
2019-01-10T15:48:15.335Z,4.70
2019-01-10T15:50:54.892Z,4.70
2019-01-10T15:53:35.511Z,4.70
2019-01-10T15:56:17.170Z,4.70
2019-01-10T15:58:57.846Z,4.60
2019-01-10T16:04:20.430Z,4.50
2019-01-10T16:07:01.892Z,4.50
2019-01-10T16:09:42.614Z,4.40
2019-01-10T16:12:23.183Z,4.50
2019-01-10T16:15:03.862Z,4.40
2019-01-10T16:17:44.949Z,4.40
2019-01-10T16:20:24.463Z,4.40
2019-01-10T16:23:12.820Z,4.40
2019-01-10T16:25:54.132Z,4.40
2019-01-10T16:28:34.772Z,4.40
2019-01-10T16:31:15.684Z,4.40
2019-01-10T16:37:09.030Z,4.40
2019-01-10T16:39:50.835Z,4.40
2019-01-10T16:42:32.452Z,4.40
2019-01-10T16:45:13.754Z,4.40
2019-01-10T16:47:54.745Z,4.30
2019-01-10T16:50:36.193Z,4.30
2019-01-10T16:53:17.263Z,4.30
2019-01-10T16:55:58.382Z,4.30
2019-01-10T16:58:40.184Z,4.30
2019-01-10T17:01:20.856Z,4.30
2019-01-10T17:04:02.303Z,4.30
2019-01-10T17:06:42.972Z,4.20
2019-01-10T17:09:24.308Z,4.20
2019-01-10T17:12:05.259Z,4.20
2019-01-10T17:14:46.364Z,4.10
2019-01-10T17:20:09.541Z,4.10
2019-01-10T17:22:50.007Z,4.20
2019-01-10T17:25:30.676Z,4.20
2019-01-10T17:28:11.419Z,4.10
2019-01-10T17:30:52.197Z,4.20
2019-01-10T17:33:33.097Z,4.20
2019-01-10T17:36:18.434Z,4.10
2019-01-10T17:38:57.128Z,4.20
2019-01-10T17:41:39.656Z,4.10
2019-01-10T17:47:07.380Z,4.10
2019-01-10T17:49:38.106Z,4.10
2019-01-10T17:52:26.850Z,4.00
2019-01-10T17:55:15.205Z,4.10
2019-01-10T17:57:56.076Z,4.10
2019-01-10T18:00:37.539Z,4.00
2019-01-10T18:03:18.756Z,4.00
2019-01-10T18:06:00.906Z,4.00
2019-01-10T18:08:43.615Z,4.00
2019-01-10T18:11:24.975Z,4.00
2019-01-10T18:14:06.600Z,4.00
2019-01-10T18:16:47.175Z,4.00
2019-01-10T18:19:26.996Z,3.90
2019-01-10T18:22:15.326Z,3.90
2019-01-10T18:24:56.139Z,3.90
2019-01-10T18:30:17.155Z,3.80
2019-01-10T18:35:40.328Z,3.70
2019-01-10T18:38:21.716Z,3.70
2019-01-10T18:41:03.096Z,3.70
2019-01-10T18:43:44.590Z,3.60
2019-01-10T18:46:25.336Z,3.70
2019-01-10T18:49:06.551Z,3.60
2019-01-10T18:51:47.517Z,3.60
2019-01-10T18:54:28.929Z,3.60
2019-01-10T18:57:09.757Z,3.60
2019-01-10T18:59:51.382Z,3.60
2019-01-10T19:02:32.718Z,3.50
2019-01-10T19:05:14.280Z,3.50
2019-01-10T19:07:55.785Z,3.50
2019-01-10T19:10:37.315Z,3.50
2019-01-10T19:13:18.828Z,3.50
2019-01-10T19:16:00.945Z,3.50
2019-01-10T19:18:42.064Z,3.50
2019-01-10T19:24:05.844Z,3.50
2019-01-10T19:26:47.188Z,3.50
2019-01-10T19:29:28.576Z,3.50
2019-01-10T19:32:09.338Z,3.50
2019-01-10T19:34:51.068Z,3.40
2019-01-10T19:37:32.463Z,3.40
2019-01-10T19:40:13.183Z,3.40
2019-01-10T19:42:53.766Z,3.40
2019-01-10T19:45:34.413Z,3.40
2019-01-10T19:48:15.704Z,3.40
2019-01-10T19:50:57.298Z,3.30
2019-01-10T19:53:38.900Z,3.40
2019-01-10T19:56:20.264Z,3.30
2019-01-10T19:59:00.937Z,3.30
2019-01-10T20:01:40.606Z,3.30
2019-01-10T20:04:29.056Z,3.40
2019-01-10T20:07:09.792Z,3.40
2019-01-10T20:09:52.228Z,3.40
2019-01-10T20:12:33.698Z,3.40
2019-01-10T20:15:15.068Z,3.40
2019-01-10T20:17:56.915Z,3.40
2019-01-10T20:20:37.715Z,3.40
2019-01-10T20:23:19.975Z,3.40
2019-01-10T20:26:01.097Z,3.40
2019-01-10T20:28:41.819Z,3.40
2019-01-10T20:31:23.142Z,3.40
2019-01-10T20:34:04.566Z,3.40
2019-01-10T20:36:45.298Z,3.40
2019-01-10T20:39:26.106Z,3.40
2019-01-10T20:42:07.530Z,3.40
2019-01-10T20:44:48.193Z,3.40
2019-01-10T20:50:10.983Z,3.40
2019-01-10T20:52:51.645Z,3.40
2019-01-10T20:55:32.348Z,3.40
2019-01-10T20:58:13.844Z,3.30
2019-01-10T21:00:54.809Z,3.30
2019-01-10T21:03:35.651Z,3.40
2019-01-10T21:06:16.664Z,3.40
2019-01-10T21:08:57.202Z,3.40
2019-01-10T21:14:21.800Z,3.40
2019-01-10T21:17:02.653Z,3.40
2019-01-10T21:19:44.141Z,3.40
2019-01-10T21:22:25.417Z,3.40
2019-01-10T21:25:06.135Z,3.40
2019-01-10T21:27:45.535Z,3.40
2019-01-10T21:30:26.461Z,3.40
2019-01-10T21:33:07.304Z,3.40
2019-01-10T21:35:47.974Z,3.30
2019-01-10T21:38:29.862Z,3.30
2019-01-10T21:41:11.099Z,3.30
2019-01-10T21:43:51.735Z,3.30
2019-01-10T21:46:32.428Z,3.30
2019-01-10T21:49:13.363Z,3.30
2019-01-10T21:51:54.863Z,3.30
2019-01-10T21:54:37.885Z,3.30
2019-01-10T21:57:18.936Z,3.30
2019-01-10T21:59:58.362Z,3.30
2019-01-10T22:02:39.766Z,3.30
2019-01-10T22:05:21.505Z,3.30
2019-01-10T22:08:04.937Z,3.30
2019-01-10T22:10:46.392Z,3.30
2019-01-10T22:13:27.816Z,3.30
2019-01-10T22:16:08.547Z,3.30
2019-01-10T22:18:50.010Z,3.30
2019-01-10T22:21:31.476Z,3.30
2019-01-10T22:24:12.918Z,3.30
2019-01-10T22:26:54.779Z,3.20
2019-01-10T22:29:35.750Z,3.30
2019-01-10T22:34:46.872Z,3.30
2019-01-10T22:37:16.415Z,3.20
2019-01-10T22:40:05.680Z,3.20
2019-01-10T22:42:54.352Z,3.20
2019-01-10T22:45:35.360Z,3.20
2019-01-10T22:48:16.418Z,3.20
2019-01-10T22:50:57.231Z,3.20
2019-01-10T22:53:38.526Z,3.20
2019-01-10T22:56:19.180Z,3.20
2019-01-10T22:59:00.675Z,3.20
2019-01-10T23:02:06.198Z,3.20
2019-01-10T23:04:54.566Z,3.20
2019-01-10T23:07:37.024Z,3.20
2019-01-10T23:10:18.130Z,3.20
2019-01-10T23:12:59.032Z,3.20
2019-01-10T23:15:40.435Z,3.20
2019-01-10T23:18:22.194Z,3.20
2019-01-10T23:21:03.203Z,3.10
2019-01-10T23:23:44.174Z,3.20
2019-01-10T23:29:06.737Z,3.10
2019-01-10T23:31:48.117Z,3.10
2019-01-10T23:34:29.410Z,3.20
2019-01-10T23:37:10.036Z,3.20
2019-01-10T23:39:50.639Z,3.20
2019-01-10T23:42:31.886Z,3.20
2019-01-10T23:45:13.062Z,3.20
2019-01-10T23:47:54.146Z,3.20
2019-01-10T23:50:35.213Z,3.20
2019-01-10T23:55:58.069Z,3.20
2019-01-10T23:58:38.761Z,3.20
